sensor_id;sensor_type;location;lat;lon;timestamp;temperature;humidity
58413;DHT22;44209;52.952;6.790;2023-04-15T00:02:18;7.20;99.90
58413;DHT22;44209;52.952;6.790;2023-04-15T00:04:45;7.20;99.90
58413;DHT22;44209;52.952;6.790;2023-04-15T00:07:11;7.10;99.90
58413;DHT22;44209;52.952;6.790;2023-04-15T00:09:37;7.10;99.90
58413;DHT22;44209;52.952;6.790;2023-04-15T00:12:03;7.00;99.90
58413;DHT22;44209;52.952;6.790;2023-04-15T00:14:30;7.00;99.90
58413;DHT22;44209;52.952;6.790;2023-04-15T00:16:55;7.00;99.90
58413;DHT22;44209;52.952;6.790;2023-04-15T00:19:22;7.00;99.90
58413;DHT22;44209;52.952;6.790;2023-04-15T00:21:49;7.00;99.90
58413;DHT22;44209;52.952;6.790;2023-04-15T00:24:14;6.90;99.90
58413;DHT22;44209;52.952;6.790;2023-04-15T00:26:40;6.90;99.90
58413;DHT22;44209;52.952;6.790;2023-04-15T00:29:06;6.90;99.90
58413;DHT22;44209;52.952;6.790;2023-04-15T00:31:31;6.80;99.90
58413;DHT22;44209;52.952;6.790;2023-04-15T00:33:57;6.80;99.90
58413;DHT22;44209;52.952;6.790;2023-04-15T00:36:24;6.80;99.90
58413;DHT22;44209;52.952;6.790;2023-04-15T00:38:50;6.80;99.90
58413;DHT22;44209;52.952;6.790;2023-04-15T00:41:17;6.70;99.90
58413;DHT22;44209;52.952;6.790;2023-04-15T00:43:43;6.70;99.90
58413;DHT22;44209;52.952;6.790;2023-04-15T00:46:12;6.70;99.90
58413;DHT22;44209;52.952;6.790;2023-04-15T00:48:39;6.70;99.90
58413;DHT22;44209;52.952;6.790;2023-04-15T00:51:05;6.70;99.90
58413;DHT22;44209;52.952;6.790;2023-04-15T00:53:32;6.60;99.90
58413;DHT22;44209;52.952;6.790;2023-04-15T00:55:57;6.60;99.90
58413;DHT22;44209;52.952;6.790;2023-04-15T00:58:23;6.60;99.90
58413;DHT22;44209;52.952;6.790;2023-04-15T01:00:50;6.60;99.90
58413;DHT22;44209;52.952;6.790;2023-04-15T01:03:19;6.60;99.90
58413;DHT22;44209;52.952;6.790;2023-04-15T01:05:45;6.50;99.90
58413;DHT22;44209;52.952;6.790;2023-04-15T01:08:11;6.50;99.90
58413;DHT22;44209;52.952;6.790;2023-04-15T01:10:37;6.50;99.90
58413;DHT22;44209;52.952;6.790;2023-04-15T01:13:04;6.40;99.90
58413;DHT22;44209;52.952;6.790;2023-04-15T01:15:30;6.40;99.90
58413;DHT22;44209;52.952;6.790;2023-04-15T01:18:00;6.40;99.90
58413;DHT22;44209;52.952;6.790;2023-04-15T01:20:27;6.40;99.90
58413;DHT22;44209;52.952;6.790;2023-04-15T01:22:54;6.30;99.90
58413;DHT22;44209;52.952;6.790;2023-04-15T01:25:30;6.30;99.90
58413;DHT22;44209;52.952;6.790;2023-04-15T01:27:57;6.20;99.90
58413;DHT22;44209;52.952;6.790;2023-04-15T01:30:24;6.20;99.90
58413;DHT22;44209;52.952;6.790;2023-04-15T01:32:50;6.20;99.90
58413;DHT22;44209;52.952;6.790;2023-04-15T01:35:16;6.10;99.90
58413;DHT22;44209;52.952;6.790;2023-04-15T01:37:42;6.00;99.90
58413;DHT22;44209;52.952;6.790;2023-04-15T01:40:09;6.00;99.90
58413;DHT22;44209;52.952;6.790;2023-04-15T01:42:35;6.00;99.90
58413;DHT22;44209;52.952;6.790;2023-04-15T01:45:02;5.90;99.90
58413;DHT22;44209;52.952;6.790;2023-04-15T01:47:28;5.80;99.90
58413;DHT22;44209;52.952;6.790;2023-04-15T01:49:54;5.80;99.90
58413;DHT22;44209;52.952;6.790;2023-04-15T01:52:19;5.80;99.90
58413;DHT22;44209;52.952;6.790;2023-04-15T01:54:46;5.70;99.90
58413;DHT22;44209;52.952;6.790;2023-04-15T01:57:12;5.70;99.90
58413;DHT22;44209;52.952;6.790;2023-04-15T01:59:38;5.70;99.90
58413;DHT22;44209;52.952;6.790;2023-04-15T02:02:03;5.60;99.90
58413;DHT22;44209;52.952;6.790;2023-04-15T02:04:29;5.60;99.90
58413;DHT22;44209;52.952;6.790;2023-04-15T02:06:56;5.60;99.90
58413;DHT22;44209;52.952;6.790;2023-04-15T02:09:21;5.50;99.90
58413;DHT22;44209;52.952;6.790;2023-04-15T02:11:47;5.50;99.90
58413;DHT22;44209;52.952;6.790;2023-04-15T02:14:13;5.50;99.90
58413;DHT22;44209;52.952;6.790;2023-04-15T02:16:39;5.50;99.90
58413;DHT22;44209;52.952;6.790;2023-04-15T02:19:05;5.50;99.90
58413;DHT22;44209;52.952;6.790;2023-04-15T02:21:30;5.50;99.90
58413;DHT22;44209;52.952;6.790;2023-04-15T02:23:56;5.40;99.90
58413;DHT22;44209;52.952;6.790;2023-04-15T02:26:22;5.40;99.90
58413;DHT22;44209;52.952;6.790;2023-04-15T02:28:49;5.40;99.90
58413;DHT22;44209;52.952;6.790;2023-04-15T02:31:18;5.40;99.90
58413;DHT22;44209;52.952;6.790;2023-04-15T02:33:44;5.40;99.90
58413;DHT22;44209;52.952;6.790;2023-04-15T02:36:09;5.40;99.90
58413;DHT22;44209;52.952;6.790;2023-04-15T02:38:36;5.40;99.90
58413;DHT22;44209;52.952;6.790;2023-04-15T02:41:04;5.40;99.90
58413;DHT22;44209;52.952;6.790;2023-04-15T02:43:30;5.40;99.90
58413;DHT22;44209;52.952;6.790;2023-04-15T02:45:56;5.30;99.90
58413;DHT22;44209;52.952;6.790;2023-04-15T02:48:21;5.30;99.90
58413;DHT22;44209;52.952;6.790;2023-04-15T02:50:47;5.30;99.90
58413;DHT22;44209;52.952;6.790;2023-04-15T02:53:13;5.30;99.90
58413;DHT22;44209;52.952;6.790;2023-04-15T02:55:39;5.30;99.90
58413;DHT22;44209;52.952;6.790;2023-04-15T02:58:06;5.30;99.90
58413;DHT22;44209;52.952;6.790;2023-04-15T03:00:32;5.30;99.90
58413;DHT22;44209;52.952;6.790;2023-04-15T03:03:05;5.30;99.90
58413;DHT22;44209;52.952;6.790;2023-04-15T03:05:30;5.30;99.90
58413;DHT22;44209;52.952;6.790;2023-04-15T03:07:56;5.20;99.90
58413;DHT22;44209;52.952;6.790;2023-04-15T03:10:22;5.20;99.90
58413;DHT22;44209;52.952;6.790;2023-04-15T03:12:48;5.20;99.90
58413;DHT22;44209;52.952;6.790;2023-04-15T03:15:14;5.20;99.90
58413;DHT22;44209;52.952;6.790;2023-04-15T03:17:40;5.20;99.90
58413;DHT22;44209;52.952;6.790;2023-04-15T03:20:06;5.20;99.90
58413;DHT22;44209;52.952;6.790;2023-04-15T03:22:32;5.20;99.90
58413;DHT22;44209;52.952;6.790;2023-04-15T03:24:58;5.20;99.90
58413;DHT22;44209;52.952;6.790;2023-04-15T03:27:24;5.20;99.90
58413;DHT22;44209;52.952;6.790;2023-04-15T03:29:50;5.10;99.90
58413;DHT22;44209;52.952;6.790;2023-04-15T03:32:16;5.10;99.90
58413;DHT22;44209;52.952;6.790;2023-04-15T03:34:42;5.10;99.90
58413;DHT22;44209;52.952;6.790;2023-04-15T03:37:08;5.10;99.90
58413;DHT22;44209;52.952;6.790;2023-04-15T03:39:34;5.10;99.90
58413;DHT22;44209;52.952;6.790;2023-04-15T03:42:00;5.10;99.90
58413;DHT22;44209;52.952;6.790;2023-04-15T03:44:26;5.00;99.90
58413;DHT22;44209;52.952;6.790;2023-04-15T03:46:52;5.00;99.90
58413;DHT22;44209;52.952;6.790;2023-04-15T03:49:19;5.00;99.90
58413;DHT22;44209;52.952;6.790;2023-04-15T03:51:45;4.90;99.90
58413;DHT22;44209;52.952;6.790;2023-04-15T03:54:11;4.90;99.90
58413;DHT22;44209;52.952;6.790;2023-04-15T03:56:39;4.80;99.90
58413;DHT22;44209;52.952;6.790;2023-04-15T03:59:05;4.80;99.90
58413;DHT22;44209;52.952;6.790;2023-04-15T04:01:31;4.80;99.90
58413;DHT22;44209;52.952;6.790;2023-04-15T04:03:57;4.70;99.90
58413;DHT22;44209;52.952;6.790;2023-04-15T04:06:22;4.70;99.90
58413;DHT22;44209;52.952;6.790;2023-04-15T04:08:48;4.70;99.90
58413;DHT22;44209;52.952;6.790;2023-04-15T04:11:14;4.80;99.90
58413;DHT22;44209;52.952;6.790;2023-04-15T04:13:39;4.80;99.90
58413;DHT22;44209;52.952;6.790;2023-04-15T04:16:06;4.70;99.90
58413;DHT22;44209;52.952;6.790;2023-04-15T04:18:32;4.70;99.90
58413;DHT22;44209;52.952;6.790;2023-04-15T04:20:57;4.70;99.90
58413;DHT22;44209;52.952;6.790;2023-04-15T04:23:23;4.60;99.90
58413;DHT22;44209;52.952;6.790;2023-04-15T04:25:49;4.60;99.90
58413;DHT22;44209;52.952;6.790;2023-04-15T04:28:15;4.60;99.90
58413;DHT22;44209;52.952;6.790;2023-04-15T04:30:41;4.70;99.90
58413;DHT22;44209;52.952;6.790;2023-04-15T04:33:07;4.70;99.90
58413;DHT22;44209;52.952;6.790;2023-04-15T04:35:32;4.70;99.90
58413;DHT22;44209;52.952;6.790;2023-04-15T04:38:00;4.70;99.90
58413;DHT22;44209;52.952;6.790;2023-04-15T04:40:26;4.70;99.90
58413;DHT22;44209;52.952;6.790;2023-04-15T04:42:52;4.70;99.90
58413;DHT22;44209;52.952;6.790;2023-04-15T04:45:19;4.60;99.90
58413;DHT22;44209;52.952;6.790;2023-04-15T04:47:44;4.60;99.90
58413;DHT22;44209;52.952;6.790;2023-04-15T04:50:11;4.60;99.90
58413;DHT22;44209;52.952;6.790;2023-04-15T04:52:37;4.60;99.90
58413;DHT22;44209;52.952;6.790;2023-04-15T04:55:04;4.70;99.90
58413;DHT22;44209;52.952;6.790;2023-04-15T04:57:29;4.70;99.90
58413;DHT22;44209;52.952;6.790;2023-04-15T04:59:55;4.70;99.90
58413;DHT22;44209;52.952;6.790;2023-04-15T05:02:22;4.70;99.90
58413;DHT22;44209;52.952;6.790;2023-04-15T05:04:47;4.60;99.90
58413;DHT22;44209;52.952;6.790;2023-04-15T05:07:14;4.60;99.90
58413;DHT22;44209;52.952;6.790;2023-04-15T05:09:40;4.50;99.90
58413;DHT22;44209;52.952;6.790;2023-04-15T05:12:06;4.60;99.90
58413;DHT22;44209;52.952;6.790;2023-04-15T05:14:33;4.60;99.90
58413;DHT22;44209;52.952;6.790;2023-04-15T05:16:59;4.60;99.90
58413;DHT22;44209;52.952;6.790;2023-04-15T05:19:25;4.60;99.90
58413;DHT22;44209;52.952;6.790;2023-04-15T05:21:50;4.70;99.90
58413;DHT22;44209;52.952;6.790;2023-04-15T05:24:16;4.70;99.90
58413;DHT22;44209;52.952;6.790;2023-04-15T05:26:42;4.80;99.90
58413;DHT22;44209;52.952;6.790;2023-04-15T05:29:08;4.80;99.90
58413;DHT22;44209;52.952;6.790;2023-04-15T05:31:34;4.90;99.90
58413;DHT22;44209;52.952;6.790;2023-04-15T05:34:00;4.90;99.90
58413;DHT22;44209;52.952;6.790;2023-04-15T05:36:26;5.00;99.90
58413;DHT22;44209;52.952;6.790;2023-04-15T05:38:53;5.00;99.90
58413;DHT22;44209;52.952;6.790;2023-04-15T05:41:18;5.10;99.90
58413;DHT22;44209;52.952;6.790;2023-04-15T05:43:44;5.20;99.90
58413;DHT22;44209;52.952;6.790;2023-04-15T05:46:10;5.20;99.90
58413;DHT22;44209;52.952;6.790;2023-04-15T05:48:35;5.30;99.90
58413;DHT22;44209;52.952;6.790;2023-04-15T05:51:01;5.30;99.90
58413;DHT22;44209;52.952;6.790;2023-04-15T05:53:27;5.40;99.90
58413;DHT22;44209;52.952;6.790;2023-04-15T05:55:52;5.50;99.90
58413;DHT22;44209;52.952;6.790;2023-04-15T05:58:18;5.50;99.90
58413;DHT22;44209;52.952;6.790;2023-04-15T06:00:44;5.60;99.90
58413;DHT22;44209;52.952;6.790;2023-04-15T06:03:10;5.70;99.90
58413;DHT22;44209;52.952;6.790;2023-04-15T06:05:36;5.80;99.90
58413;DHT22;44209;52.952;6.790;2023-04-15T06:08:03;5.80;99.90
58413;DHT22;44209;52.952;6.790;2023-04-15T06:10:29;5.90;99.90
58413;DHT22;44209;52.952;6.790;2023-04-15T06:12:55;6.00;99.90
58413;DHT22;44209;52.952;6.790;2023-04-15T06:15:21;6.00;99.90
58413;DHT22;44209;52.952;6.790;2023-04-15T06:17:46;6.10;99.90
58413;DHT22;44209;52.952;6.790;2023-04-15T06:20:12;6.20;99.90
58413;DHT22;44209;52.952;6.790;2023-04-15T06:22:38;6.20;99.90
58413;DHT22;44209;52.952;6.790;2023-04-15T06:25:05;6.30;99.90
58413;DHT22;44209;52.952;6.790;2023-04-15T06:27:32;6.30;99.90
58413;DHT22;44209;52.952;6.790;2023-04-15T06:29:58;6.40;99.90
58413;DHT22;44209;52.952;6.790;2023-04-15T06:32:23;6.50;99.90
58413;DHT22;44209;52.952;6.790;2023-04-15T06:34:49;6.50;99.90
58413;DHT22;44209;52.952;6.790;2023-04-15T06:37:15;6.50;99.90
58413;DHT22;44209;52.952;6.790;2023-04-15T06:39:41;6.60;99.90
58413;DHT22;44209;52.952;6.790;2023-04-15T06:42:10;6.60;99.90
58413;DHT22;44209;52.952;6.790;2023-04-15T06:44:36;6.60;99.90
58413;DHT22;44209;52.952;6.790;2023-04-15T06:47:02;6.70;99.90
58413;DHT22;44209;52.952;6.790;2023-04-15T06:49:28;6.70;99.90
58413;DHT22;44209;52.952;6.790;2023-04-15T06:51:54;6.70;99.90
58413;DHT22;44209;52.952;6.790;2023-04-15T06:54:20;6.80;99.90
58413;DHT22;44209;52.952;6.790;2023-04-15T06:56:45;6.80;99.90
58413;DHT22;44209;52.952;6.790;2023-04-15T06:59:12;6.90;99.90
58413;DHT22;44209;52.952;6.790;2023-04-15T07:01:40;6.90;99.90
58413;DHT22;44209;52.952;6.790;2023-04-15T07:04:06;7.00;99.90
58413;DHT22;44209;52.952;6.790;2023-04-15T07:06:32;7.00;99.90
58413;DHT22;44209;52.952;6.790;2023-04-15T07:08:58;7.00;99.90
58413;DHT22;44209;52.952;6.790;2023-04-15T07:11:25;7.10;99.90
58413;DHT22;44209;52.952;6.790;2023-04-15T07:13:51;7.00;99.90
58413;DHT22;44209;52.952;6.790;2023-04-15T07:16:17;7.10;99.90
58413;DHT22;44209;52.952;6.790;2023-04-15T07:18:42;7.10;99.90
58413;DHT22;44209;52.952;6.790;2023-04-15T07:21:08;7.20;99.90
58413;DHT22;44209;52.952;6.790;2023-04-15T07:23:34;7.20;99.90
58413;DHT22;44209;52.952;6.790;2023-04-15T07:26:00;7.30;99.90
58413;DHT22;44209;52.952;6.790;2023-04-15T07:28:26;7.40;99.90
58413;DHT22;44209;52.952;6.790;2023-04-15T07:30:51;7.40;99.90
58413;DHT22;44209;52.952;6.790;2023-04-15T07:33:17;7.40;99.90
58413;DHT22;44209;52.952;6.790;2023-04-15T07:35:43;7.50;99.90
58413;DHT22;44209;52.952;6.790;2023-04-15T07:38:10;7.50;99.90
58413;DHT22;44209;52.952;6.790;2023-04-15T07:40:38;7.60;99.90
58413;DHT22;44209;52.952;6.790;2023-04-15T07:43:04;7.70;99.90
58413;DHT22;44209;52.952;6.790;2023-04-15T07:45:33;7.70;99.90
58413;DHT22;44209;52.952;6.790;2023-04-15T07:48:00;7.80;99.90
58413;DHT22;44209;52.952;6.790;2023-04-15T07:50:27;7.90;99.90
58413;DHT22;44209;52.952;6.790;2023-04-15T07:52:53;7.90;99.90
58413;DHT22;44209;52.952;6.790;2023-04-15T07:55:19;8.00;99.90
58413;DHT22;44209;52.952;6.790;2023-04-15T07:57:47;8.10;99.90
58413;DHT22;44209;52.952;6.790;2023-04-15T08:00:14;8.10;99.90
58413;DHT22;44209;52.952;6.790;2023-04-15T08:02:41;8.20;99.90
58413;DHT22;44209;52.952;6.790;2023-04-15T08:05:12;8.30;99.90
58413;DHT22;44209;52.952;6.790;2023-04-15T08:07:38;8.40;99.90
58413;DHT22;44209;52.952;6.790;2023-04-15T08:10:05;8.50;99.90
58413;DHT22;44209;52.952;6.790;2023-04-15T08:12:31;8.50;99.90
58413;DHT22;44209;52.952;6.790;2023-04-15T08:14:56;8.60;99.90
58413;DHT22;44209;52.952;6.790;2023-04-15T08:17:23;8.60;99.90
58413;DHT22;44209;52.952;6.790;2023-04-15T08:19:48;8.60;99.90
58413;DHT22;44209;52.952;6.790;2023-04-15T08:22:14;8.50;99.90
58413;DHT22;44209;52.952;6.790;2023-04-15T08:24:40;8.50;99.90
58413;DHT22;44209;52.952;6.790;2023-04-15T08:27:06;8.50;99.90
58413;DHT22;44209;52.952;6.790;2023-04-15T08:29:32;8.50;99.90
58413;DHT22;44209;52.952;6.790;2023-04-15T08:31:59;8.50;99.90
58413;DHT22;44209;52.952;6.790;2023-04-15T08:34:28;8.50;99.90
58413;DHT22;44209;52.952;6.790;2023-04-15T08:36:54;8.50;99.90
58413;DHT22;44209;52.952;6.790;2023-04-15T08:39:20;8.50;99.90
58413;DHT22;44209;52.952;6.790;2023-04-15T08:41:47;8.40;99.90
58413;DHT22;44209;52.952;6.790;2023-04-15T08:44:16;8.40;99.90
58413;DHT22;44209;52.952;6.790;2023-04-15T08:46:42;8.50;99.90
58413;DHT22;44209;52.952;6.790;2023-04-15T08:49:12;8.50;99.90
58413;DHT22;44209;52.952;6.790;2023-04-15T08:51:41;8.50;99.90
58413;DHT22;44209;52.952;6.790;2023-04-15T08:54:08;8.50;99.90
58413;DHT22;44209;52.952;6.790;2023-04-15T08:56:34;8.50;99.90
58413;DHT22;44209;52.952;6.790;2023-04-15T08:59:01;8.40;99.90
58413;DHT22;44209;52.952;6.790;2023-04-15T09:01:28;8.40;99.90
58413;DHT22;44209;52.952;6.790;2023-04-15T09:03:53;8.40;99.90
58413;DHT22;44209;52.952;6.790;2023-04-15T09:06:21;8.50;99.90
58413;DHT22;44209;52.952;6.790;2023-04-15T09:08:48;8.50;99.90
58413;DHT22;44209;52.952;6.790;2023-04-15T09:11:14;8.50;99.90
58413;DHT22;44209;52.952;6.790;2023-04-15T09:13:42;8.60;99.90
58413;DHT22;44209;52.952;6.790;2023-04-15T09:16:08;8.70;99.90
58413;DHT22;44209;52.952;6.790;2023-04-15T09:18:35;8.70;99.90
58413;DHT22;44209;52.952;6.790;2023-04-15T09:21:09;8.70;99.90
58413;DHT22;44209;52.952;6.790;2023-04-15T09:23:37;8.80;99.90
58413;DHT22;44209;52.952;6.790;2023-04-15T09:26:04;8.90;99.90
58413;DHT22;44209;52.952;6.790;2023-04-15T09:28:30;8.80;99.90
58413;DHT22;44209;52.952;6.790;2023-04-15T09:30:57;8.80;99.90
58413;DHT22;44209;52.952;6.790;2023-04-15T09:33:23;8.80;99.90
58413;DHT22;44209;52.952;6.790;2023-04-15T09:36:04;8.80;99.90
58413;DHT22;44209;52.952;6.790;2023-04-15T09:38:30;8.80;99.90
58413;DHT22;44209;52.952;6.790;2023-04-15T09:40:57;8.80;99.90
58413;DHT22;44209;52.952;6.790;2023-04-15T09:43:39;8.80;99.90
58413;DHT22;44209;52.952;6.790;2023-04-15T09:46:04;8.80;99.90
58413;DHT22;44209;52.952;6.790;2023-04-15T09:48:30;8.80;99.90
58413;DHT22;44209;52.952;6.790;2023-04-15T09:51:00;8.80;99.90
58413;DHT22;44209;52.952;6.790;2023-04-15T09:53:27;8.80;99.90
58413;DHT22;44209;52.952;6.790;2023-04-15T09:55:55;8.80;99.90
58413;DHT22;44209;52.952;6.790;2023-04-15T09:58:26;8.80;99.90
58413;DHT22;44209;52.952;6.790;2023-04-15T10:00:53;8.90;99.90
58413;DHT22;44209;52.952;6.790;2023-04-15T10:03:27;8.90;99.90
58413;DHT22;44209;52.952;6.790;2023-04-15T10:05:55;8.90;99.90
58413;DHT22;44209;52.952;6.790;2023-04-15T10:08:32;9.00;99.90
58413;DHT22;44209;52.952;6.790;2023-04-15T10:11:01;9.00;99.90
58413;DHT22;44209;52.952;6.790;2023-04-15T10:13:29;9.00;99.90
58413;DHT22;44209;52.952;6.790;2023-04-15T10:15:59;9.10;99.90
58413;DHT22;44209;52.952;6.790;2023-04-15T10:18:26;9.10;99.90
58413;DHT22;44209;52.952;6.790;2023-04-15T10:20:53;9.10;99.90
58413;DHT22;44209;52.952;6.790;2023-04-15T10:23:21;9.10;99.90
58413;DHT22;44209;52.952;6.790;2023-04-15T10:25:48;9.10;99.90
58413;DHT22;44209;52.952;6.790;2023-04-15T10:28:16;9.10;99.90
58413;DHT22;44209;52.952;6.790;2023-04-15T10:30:42;9.10;99.90
58413;DHT22;44209;52.952;6.790;2023-04-15T10:33:08;9.10;99.90
58413;DHT22;44209;52.952;6.790;2023-04-15T10:35:35;9.20;99.90
58413;DHT22;44209;52.952;6.790;2023-04-15T10:38:01;9.20;99.90
58413;DHT22;44209;52.952;6.790;2023-04-15T10:40:31;9.20;99.90
58413;DHT22;44209;52.952;6.790;2023-04-15T10:43:01;9.20;99.90
58413;DHT22;44209;52.952;6.790;2023-04-15T10:45:34;9.20;99.90
58413;DHT22;44209;52.952;6.790;2023-04-15T10:48:06;9.20;99.90
58413;DHT22;44209;52.952;6.790;2023-04-15T10:50:32;9.20;99.90
58413;DHT22;44209;52.952;6.790;2023-04-15T10:52:58;9.20;99.90
58413;DHT22;44209;52.952;6.790;2023-04-15T10:55:31;9.20;99.90
58413;DHT22;44209;52.952;6.790;2023-04-15T10:57:58;9.20;99.90
58413;DHT22;44209;52.952;6.790;2023-04-15T11:00:28;9.30;99.90
58413;DHT22;44209;52.952;6.790;2023-04-15T11:03:08;9.40;99.90
58413;DHT22;44209;52.952;6.790;2023-04-15T11:08:06;9.40;99.90
58413;DHT22;44209;52.952;6.790;2023-04-15T11:13:03;9.30;99.90
58413;DHT22;44209;52.952;6.790;2023-04-15T11:15:35;9.30;99.90
58413;DHT22;44209;52.952;6.790;2023-04-15T11:18:13;9.40;99.90
58413;DHT22;44209;52.952;6.790;2023-04-15T11:20:50;9.30;99.90
58413;DHT22;44209;52.952;6.790;2023-04-15T11:23:17;9.30;99.90
58413;DHT22;44209;52.952;6.790;2023-04-15T11:25:44;9.20;99.90
58413;DHT22;44209;52.952;6.790;2023-04-15T11:28:11;9.30;99.90
58413;DHT22;44209;52.952;6.790;2023-04-15T11:30:38;9.30;99.90
58413;DHT22;44209;52.952;6.790;2023-04-15T11:33:08;9.30;99.90
58413;DHT22;44209;52.952;6.790;2023-04-15T11:35:35;9.40;99.90
58413;DHT22;44209;52.952;6.790;2023-04-15T11:38:05;9.40;99.90
58413;DHT22;44209;52.952;6.790;2023-04-15T11:40:32;9.50;99.90
58413;DHT22;44209;52.952;6.790;2023-04-15T11:43:14;9.40;99.90
58413;DHT22;44209;52.952;6.790;2023-04-15T11:45:54;9.50;99.90
58413;DHT22;44209;52.952;6.790;2023-04-15T11:48:25;9.60;99.90
58413;DHT22;44209;52.952;6.790;2023-04-15T11:50:59;9.70;99.90
58413;DHT22;44209;52.952;6.790;2023-04-15T11:53:45;9.70;99.90
58413;DHT22;44209;52.952;6.790;2023-04-15T11:56:22;9.60;99.90
58413;DHT22;44209;52.952;6.790;2023-04-15T11:58:51;9.50;99.90
58413;DHT22;44209;52.952;6.790;2023-04-15T12:01:17;9.50;99.90
58413;DHT22;44209;52.952;6.790;2023-04-15T12:03:47;9.40;99.90
58413;DHT22;44209;52.952;6.790;2023-04-15T12:09:08;9.30;99.90
58413;DHT22;44209;52.952;6.790;2023-04-15T12:11:44;9.30;99.90
58413;DHT22;44209;52.952;6.790;2023-04-15T12:14:25;9.30;99.90
58413;DHT22;44209;52.952;6.790;2023-04-15T12:16:52;9.40;99.90
58413;DHT22;44209;52.952;6.790;2023-04-15T12:19:23;9.40;99.90
58413;DHT22;44209;52.952;6.790;2023-04-15T12:21:50;9.30;99.90
58413;DHT22;44209;52.952;6.790;2023-04-15T12:24:20;9.30;99.90
58413;DHT22;44209;52.952;6.790;2023-04-15T12:26:52;9.40;99.90
58413;DHT22;44209;52.952;6.790;2023-04-15T12:29:18;9.40;99.90
58413;DHT22;44209;52.952;6.790;2023-04-15T12:34:15;9.30;99.90
58413;DHT22;44209;52.952;6.790;2023-04-15T12:36:41;9.30;99.90
58413;DHT22;44209;52.952;6.790;2023-04-15T12:39:07;9.20;99.90
58413;DHT22;44209;52.952;6.790;2023-04-15T12:41:34;9.20;99.90
58413;DHT22;44209;52.952;6.790;2023-04-15T12:43:59;9.10;99.90
58413;DHT22;44209;52.952;6.790;2023-04-15T12:46:26;9.20;99.90
58413;DHT22;44209;52.952;6.790;2023-04-15T12:48:52;9.20;99.90
58413;DHT22;44209;52.952;6.790;2023-04-15T12:51:18;9.10;99.90
58413;DHT22;44209;52.952;6.790;2023-04-15T12:53:46;9.10;99.90
58413;DHT22;44209;52.952;6.790;2023-04-15T12:56:13;9.00;99.90
58413;DHT22;44209;52.952;6.790;2023-04-15T12:58:39;9.00;99.90
58413;DHT22;44209;52.952;6.790;2023-04-15T13:01:04;9.00;99.90
58413;DHT22;44209;52.952;6.790;2023-04-15T13:03:31;9.00;99.90
58413;DHT22;44209;52.952;6.790;2023-04-15T13:05:56;8.90;99.90
58413;DHT22;44209;52.952;6.790;2023-04-15T13:08:22;8.90;99.90
58413;DHT22;44209;52.952;6.790;2023-04-15T13:10:48;8.90;99.90
58413;DHT22;44209;52.952;6.790;2023-04-15T13:13:14;8.80;99.90
58413;DHT22;44209;52.952;6.790;2023-04-15T13:15:40;8.80;99.90
58413;DHT22;44209;52.952;6.790;2023-04-15T13:18:06;8.80;99.90
58413;DHT22;44209;52.952;6.790;2023-04-15T13:20:32;8.70;99.90
58413;DHT22;44209;52.952;6.790;2023-04-15T13:22:58;8.70;99.90
58413;DHT22;44209;52.952;6.790;2023-04-15T13:25:24;8.60;99.90
58413;DHT22;44209;52.952;6.790;2023-04-15T13:27:50;8.60;99.90
58413;DHT22;44209;52.952;6.790;2023-04-15T13:30:16;8.60;99.90
58413;DHT22;44209;52.952;6.790;2023-04-15T13:32:42;8.60;99.90
58413;DHT22;44209;52.952;6.790;2023-04-15T13:35:08;8.60;99.90
58413;DHT22;44209;52.952;6.790;2023-04-15T13:37:34;8.60;99.90
58413;DHT22;44209;52.952;6.790;2023-04-15T13:40:00;8.60;99.90
58413;DHT22;44209;52.952;6.790;2023-04-15T13:42:26;8.60;99.90
58413;DHT22;44209;52.952;6.790;2023-04-15T13:44:52;8.60;99.90
58413;DHT22;44209;52.952;6.790;2023-04-15T13:47:21;8.60;99.90
58413;DHT22;44209;52.952;6.790;2023-04-15T13:49:49;8.60;99.90
58413;DHT22;44209;52.952;6.790;2023-04-15T13:52:15;8.50;99.90
58413;DHT22;44209;52.952;6.790;2023-04-15T13:54:40;8.60;99.90
58413;DHT22;44209;52.952;6.790;2023-04-15T13:57:06;8.50;99.90
58413;DHT22;44209;52.952;6.790;2023-04-15T13:59:33;8.50;99.90
58413;DHT22;44209;52.952;6.790;2023-04-15T14:01:59;8.50;99.90
58413;DHT22;44209;52.952;6.790;2023-04-15T14:04:25;8.50;99.90
58413;DHT22;44209;52.952;6.790;2023-04-15T14:06:51;8.50;99.90
58413;DHT22;44209;52.952;6.790;2023-04-15T14:09:17;8.50;99.90
58413;DHT22;44209;52.952;6.790;2023-04-15T14:11:42;8.50;99.90
58413;DHT22;44209;52.952;6.790;2023-04-15T14:14:08;8.50;99.90
58413;DHT22;44209;52.952;6.790;2023-04-15T14:16:34;8.50;99.90
58413;DHT22;44209;52.952;6.790;2023-04-15T14:19:01;8.50;99.90
58413;DHT22;44209;52.952;6.790;2023-04-15T14:21:27;8.50;99.90
58413;DHT22;44209;52.952;6.790;2023-04-15T14:23:54;8.50;99.90
58413;DHT22;44209;52.952;6.790;2023-04-15T14:26:20;8.50;99.90
58413;DHT22;44209;52.952;6.790;2023-04-15T14:28:45;8.50;99.90
58413;DHT22;44209;52.952;6.790;2023-04-15T14:31:12;8.40;99.90
58413;DHT22;44209;52.952;6.790;2023-04-15T14:33:38;8.40;99.90
58413;DHT22;44209;52.952;6.790;2023-04-15T14:36:05;8.40;99.90
58413;DHT22;44209;52.952;6.790;2023-04-15T14:38:33;8.40;99.90
58413;DHT22;44209;52.952;6.790;2023-04-15T14:41:03;8.40;99.90
58413;DHT22;44209;52.952;6.790;2023-04-15T14:43:29;8.40;99.90
58413;DHT22;44209;52.952;6.790;2023-04-15T14:45:55;8.50;99.90
58413;DHT22;44209;52.952;6.790;2023-04-15T14:48:20;8.40;99.90
58413;DHT22;44209;52.952;6.790;2023-04-15T14:50:46;8.40;99.90
58413;DHT22;44209;52.952;6.790;2023-04-15T14:53:12;8.40;99.90
58413;DHT22;44209;52.952;6.790;2023-04-15T14:55:38;8.40;99.90
58413;DHT22;44209;52.952;6.790;2023-04-15T14:58:04;8.40;99.90
58413;DHT22;44209;52.952;6.790;2023-04-15T15:00:30;8.40;99.90
58413;DHT22;44209;52.952;6.790;2023-04-15T15:02:56;8.40;99.90
58413;DHT22;44209;52.952;6.790;2023-04-15T15:05:22;8.40;99.90
58413;DHT22;44209;52.952;6.790;2023-04-15T15:07:48;8.40;99.90
58413;DHT22;44209;52.952;6.790;2023-04-15T15:10:14;8.40;99.90
58413;DHT22;44209;52.952;6.790;2023-04-15T15:12:39;8.30;99.90
58413;DHT22;44209;52.952;6.790;2023-04-15T15:15:05;8.30;99.90
58413;DHT22;44209;52.952;6.790;2023-04-15T15:17:31;8.30;99.90
58413;DHT22;44209;52.952;6.790;2023-04-15T15:19:57;8.30;99.90
58413;DHT22;44209;52.952;6.790;2023-04-15T15:22:23;8.30;99.90
58413;DHT22;44209;52.952;6.790;2023-04-15T15:24:50;8.30;99.90
58413;DHT22;44209;52.952;6.790;2023-04-15T15:27:15;8.30;99.90
58413;DHT22;44209;52.952;6.790;2023-04-15T15:29:41;8.30;99.90
58413;DHT22;44209;52.952;6.790;2023-04-15T15:32:07;8.30;99.90
58413;DHT22;44209;52.952;6.790;2023-04-15T15:34:32;8.30;99.90
58413;DHT22;44209;52.952;6.790;2023-04-15T15:36:59;8.30;99.90
58413;DHT22;44209;52.952;6.790;2023-04-15T15:39:25;8.30;99.90
58413;DHT22;44209;52.952;6.790;2023-04-15T15:41:51;8.20;99.90
58413;DHT22;44209;52.952;6.790;2023-04-15T15:44:16;8.20;99.90
58413;DHT22;44209;52.952;6.790;2023-04-15T15:46:42;8.20;99.90
58413;DHT22;44209;52.952;6.790;2023-04-15T15:49:08;8.20;99.90
58413;DHT22;44209;52.952;6.790;2023-04-15T15:51:33;8.20;99.90
58413;DHT22;44209;52.952;6.790;2023-04-15T15:53:59;8.20;99.90